Time;durP1;ratioP1;P1;durP2;ratioP2;P2;SDS_P1;SDS_P2;PMS_P1;PMS_P2;Temp;Humidity;BMP_temperature;BMP_pressure;BME280_temperature;BME280_humidity;BME280_pressure;Samples;Min_cycle;Max_cycle;Signal;HPM_P1;HPM_P2
2023/02/27 00:02:13;;;;;;;;;;;;;;;-0.49;74.19;100909.67;133690;1300;22487;-78
2023/02/27 00:05:13;;;;;;;;;;;;;;;-0.51;74.41;100906.66;133737;1300;22506;-78
2023/02/27 00:08:14;;;;;;;;;;;;;;;-0.53;74.65;100902.20;133775;1300;23341;-78
2023/02/27 00:11:14;;;;;;;;;;;;;;;-0.54;74.53;100906.27;133688;1300;23104;-77
2023/02/27 00:14:15;;;;;;;;;;;;;;;-0.56;74.71;100907.09;133742;1300;22555;-78
2023/02/27 00:17:15;;;;;;;;;;;;;;;-0.59;74.79;100907.41;133747;1300;22472;-78
2023/02/27 00:20:17;;;;;;;;;;;;;;;-0.62;74.85;100912.77;133756;1300;22519;-78
2023/02/27 00:23:17;;;;;;;;;;;;;;;-0.64;74.84;100916.36;133532;1302;22526;-78
2023/02/27 00:26:17;;;;;;;;;;;;;;;-0.67;74.91;100911.98;133764;1300;22568;-78
2023/02/27 00:29:18;;;;;;;;;;;;;;;-0.69;74.94;100915.38;133539;1300;22476;-78
2023/02/27 00:32:19;;;;;;;;;;;;;;;-0.71;74.94;100917.17;133788;1300;22500;-78
2023/02/27 00:35:21;;;;;;;;;;;;;;;-0.70;75.16;100920.83;133819;1300;22529;-78
2023/02/27 00:38:21;;;;;;;;;;;;;;;-0.71;75.19;100919.62;133728;1300;23212;-78
2023/02/27 00:41:22;;;;;;;;;;;;;;;-0.71;75.12;100917.89;133736;1300;22481;-78
2023/02/27 00:44:22;;;;;;;;;;;;;;;-0.72;75.24;100918.50;133713;1300;22606;-78
2023/02/27 00:47:23;;;;;;;;;;;;;;;-0.74;75.39;100914.39;133756;1305;22510;-78
2023/02/27 00:50:24;;;;;;;;;;;;;;;-0.76;75.53;100912.58;133749;1300;23357;-78
2023/02/27 00:53:24;;;;;;;;;;;;;;;-0.75;75.64;100914.99;133730;1300;22677;-78
2023/02/27 00:56:24;;;;;;;;;;;;;;;-0.75;75.77;100914.64;133721;1301;22483;-78
2023/02/27 00:59:25;;;;;;;;;;;;;;;-0.76;75.48;100918.84;133737;1300;23483;-78
2023/02/27 01:02:26;;;;;;;;;;;;;;;-0.77;75.62;100909.50;133709;1300;22540;-78
2023/02/27 01:05:29;;;;;;;;;;;;;;;-0.76;75.52;100908.95;133775;1300;22476;-78
2023/02/27 01:08:35;;;;;;;;;;;;;;;-0.74;75.61;100907.79;133728;1300;22509;-78
2023/02/27 01:11:38;;;;;;;;;;;;;;;-0.73;75.72;100908.12;133765;1300;22492;-77
2023/02/27 01:14:38;;;;;;;;;;;;;;;-0.73;75.89;100907.73;133762;1300;22530;-77
2023/02/27 01:17:39;;;;;;;;;;;;;;;-0.72;75.95;100905.28;133746;1300;22508;-77
2023/02/27 01:20:39;;;;;;;;;;;;;;;-0.72;76.10;100901.98;133719;1300;22485;-77
2023/02/27 01:23:40;;;;;;;;;;;;;;;-0.72;76.13;100899.21;133521;1300;23381;-77
2023/02/27 01:26:40;;;;;;;;;;;;;;;-0.74;76.03;100900.01;133808;1300;22494;-78
2023/02/27 01:29:41;;;;;;;;;;;;;;;-0.76;75.97;100903.55;133758;1308;22476;-77
2023/02/27 01:32:41;;;;;;;;;;;;;;;-0.77;76.06;100902.58;133756;1300;22522;-78
2023/02/27 01:35:43;;;;;;;;;;;;;;;-0.79;76.19;100904.73;133519;1303;22489;-77
2023/02/27 01:38:45;;;;;;;;;;;;;;;-0.82;76.09;100904.02;133741;1300;22478;-78
2023/02/27 01:41:46;;;;;;;;;;;;;;;-0.84;76.14;100903.75;133375;1303;22551;-77
2023/02/27 01:45:15;;;;;;;;;;;;;;;-0.84;76.27;100903.46;133589;1309;23257;-77
2023/02/27 01:48:15;;;;;;;;;;;;;;;-0.85;76.34;100905.38;133649;1301;23249;-77
2023/02/27 01:51:18;;;;;;;;;;;;;;;-0.86;76.39;100905.94;133667;1301;23409;-77
2023/02/27 01:54:25;;;;;;;;;;;;;;;-0.85;76.51;100912.36;133716;1300;22523;-77
2023/02/27 01:57:26;;;;;;;;;;;;;;;-0.86;76.58;100912.76;133755;1300;23178;-77
2023/02/27 02:00:26;;;;;;;;;;;;;;;-0.87;76.61;100915.20;133544;1300;22490;-78
2023/02/27 02:03:27;;;;;;;;;;;;;;;-0.87;76.78;100912.10;133764;1300;22598;-77
2023/02/27 02:06:29;;;;;;;;;;;;;;;-0.89;77.01;100916.17;133511;1303;23944;-77
2023/02/27 02:09:31;;;;;;;;;;;;;;;-0.91;76.80;100923.20;133785;1300;22556;-77
2023/02/27 02:12:33;;;;;;;;;;;;;;;-0.92;76.74;100924.11;133766;1300;22488;-78
2023/02/27 02:15:36;;;;;;;;;;;;;;;-0.93;76.82;100921.76;133846;1300;22502;-77
2023/02/27 02:18:37;;;;;;;;;;;;;;;-0.94;77.05;100923.70;133546;1303;22542;-77
2023/02/27 02:21:56;;;;;;;;;;;;;;;-0.94;76.97;100923.53;133534;1307;22490;-77
2023/02/27 02:25:08;;;;;;;;;;;;;;;-0.94;76.78;100926.12;133773;1300;22586;-77
2023/02/27 02:28:28;;;;;;;;;;;;;;;-0.93;76.97;100928.01;133770;1300;22482;-77
2023/02/27 02:31:47;;;;;;;;;;;;;;;-0.93;77.20;100929.92;133627;1300;22495;-78
2023/02/27 02:35:20;;;;;;;;;;;;;;;-0.95;76.85;100930.20;133509;1304;22494;-77
2023/02/27 02:38:45;;;;;;;;;;;;;;;-0.96;76.79;100934.73;133357;1300;23236;-77
2023/02/27 02:41:48;;;;;;;;;;;;;;;-0.95;76.96;100937.45;133760;1308;23198;-77
2023/02/27 02:44:56;;;;;;;;;;;;;;;-0.94;77.08;100941.05;133778;1300;22975;-78
2023/02/27 02:48:03;;;;;;;;;;;;;;;-0.94;77.10;100945.55;133749;1300;22485;-77
2023/02/27 02:51:23;;;;;;;;;;;;;;;-0.93;77.07;100943.45;133831;1300;23210;-77
2023/02/27 02:54:32;;;;;;;;;;;;;;;-0.95;76.97;100951.38;133716;1306;22476;-77
2023/02/27 02:57:39;;;;;;;;;;;;;;;-0.97;77.03;100951.63;133757;1300;22486;-77
2023/02/27 03:00:44;;;;;;;;;;;;;;;-0.97;77.13;100958.22;133772;1300;22484;-77
2023/02/27 03:03:52;;;;;;;;;;;;;;;-0.96;77.27;100960.28;133534;1303;22471;-77
2023/02/27 03:06:58;;;;;;;;;;;;;;;-0.97;77.15;100965.36;133729;1300;22562;-78
2023/02/27 03:10:12;;;;;;;;;;;;;;;-0.99;77.06;100967.16;133641;1304;23203;-77
2023/02/27 03:13:19;;;;;;;;;;;;;;;-1.00;77.27;100975.08;133786;1300;24381;-78
2023/02/27 03:16:25;;;;;;;;;;;;;;;-1.01;77.35;100977.20;133735;1300;22478;-77
2023/02/27 03:19:33;;;;;;;;;;;;;;;-1.02;77.46;100982.78;133733;1300;22501;-78
2023/02/27 03:22:36;;;;;;;;;;;;;;;-1.03;77.40;100985.77;133630;1307;23212;-77
2023/02/27 03:25:37;;;;;;;;;;;;;;;-1.04;77.29;100984.77;133731;1301;22513;-78
2023/02/27 03:28:46;;;;;;;;;;;;;;;-1.04;77.19;100985.66;133764;1300;23252;-77
2023/02/27 03:31:51;;;;;;;;;;;;;;;-1.04;77.31;100991.90;133773;1300;22479;-78
2023/02/27 03:34:51;;;;;;;;;;;;;;;-1.03;77.51;100988.92;133645;1303;23357;-77
2023/02/27 03:37:53;;;;;;;;;;;;;;;-1.04;77.51;100991.90;133686;1301;23099;-77
2023/02/27 03:40:57;;;;;;;;;;;;;;;-1.04;77.57;100996.60;133730;1300;22490;-77
2023/02/27 03:44:02;;;;;;;;;;;;;;;-1.05;77.49;100997.87;133671;1301;22492;-77
2023/02/27 03:47:02;;;;;;;;;;;;;;;-1.07;77.44;100997.27;133745;1301;22568;-78
2023/02/27 03:50:03;;;;;;;;;;;;;;;-1.07;77.50;101003.15;133750;1300;22576;-77
2023/02/27 03:53:05;;;;;;;;;;;;;;;-1.06;77.61;101007.84;133779;1300;22766;-77
2023/02/27 03:56:06;;;;;;;;;;;;;;;-1.06;77.38;101013.36;133662;1300;22476;-77
2023/02/27 03:59:07;;;;;;;;;;;;;;;-1.04;77.51;101010.48;133743;1300;23321;-77
2023/02/27 04:02:08;;;;;;;;;;;;;;;-1.02;77.79;101012.31;133649;1302;22492;-77
2023/02/27 04:05:09;;;;;;;;;;;;;;;-1.00;77.81;101014.98;133661;1304;22524;-77
2023/02/27 04:08:31;;;;;;;;;;;;;;;-0.97;77.78;101017.64;133572;1300;22479;-78
2023/02/27 04:11:41;;;;;;;;;;;;;;;-0.96;77.60;101017.77;133729;1300;22496;-77
2023/02/27 04:14:47;;;;;;;;;;;;;;;-0.95;77.72;101015.82;133785;1300;22462;-78
2023/02/27 04:17:54;;;;;;;;;;;;;;;-0.97;77.44;101016.91;133759;1300;22638;-78
2023/02/27 04:21:04;;;;;;;;;;;;;;;-0.98;77.58;101024.62;133761;1300;22676;-77
2023/02/27 04:24:07;;;;;;;;;;;;;;;-0.99;77.69;101022.05;133787;1300;22471;-77
2023/02/27 04:27:23;;;;;;;;;;;;;;;-0.99;77.85;101025.70;133751;1300;23234;-78
2023/02/27 04:30:26;;;;;;;;;;;;;;;-0.99;77.77;101023.63;133795;1300;22481;-78
2023/02/27 04:33:26;;;;;;;;;;;;;;;-1.02;77.86;101024.63;133515;1303;22515;-78
2023/02/27 04:36:31;;;;;;;;;;;;;;;-1.03;77.82;101027.13;133706;1302;22496;-78
2023/02/27 04:39:36;;;;;;;;;;;;;;;-1.05;77.97;101023.75;133745;1300;22530;-77
2023/02/27 04:42:44;;;;;;;;;;;;;;;-1.08;77.73;101027.86;133714;1307;22504;-78
2023/02/27 04:45:45;;;;;;;;;;;;;;;-1.09;77.73;101028.09;133748;1300;25023;-77
2023/02/27 04:48:59;;;;;;;;;;;;;;;-1.11;77.46;101027.68;133749;1300;22475;-78
2023/02/27 04:52:03;;;;;;;;;;;;;;;-1.12;77.44;101032.91;133745;1300;22493;-78
2023/02/27 04:55:06;;;;;;;;;;;;;;;-1.11;77.67;101034.08;133745;1300;22535;-77
2023/02/27 04:58:09;;;;;;;;;;;;;;;-1.09;77.77;101035.55;133750;1301;22489;-78
2023/02/27 05:01:15;;;;;;;;;;;;;;;-1.09;77.59;101036.62;133749;1301;22466;-78
2023/02/27 05:04:18;;;;;;;;;;;;;;;-1.10;77.43;101038.89;133727;1300;23610;-78
2023/02/27 05:07:21;;;;;;;;;;;;;;;-1.09;77.50;101043.91;133731;1300;23731;-78
2023/02/27 05:10:28;;;;;;;;;;;;;;;-1.08;77.68;101048.53;133663;1301;22675;-78
2023/02/27 05:13:31;;;;;;;;;;;;;;;-1.06;77.65;101049.14;133451;1305;22514;-78
2023/02/27 05:16:34;;;;;;;;;;;;;;;-1.05;77.73;101054.14;133480;1302;23395;-78
2023/02/27 05:19:37;;;;;;;;;;;;;;;-1.05;77.69;101055.70;133730;1300;22593;-78
2023/02/27 05:22:45;;;;;;;;;;;;;;;-1.04;77.68;101052.52;133704;1300;22502;-78
2023/02/27 05:25:54;;;;;;;;;;;;;;;-1.06;77.58;101056.25;133696;1301;22529;-80
2023/02/27 05:28:58;;;;;;;;;;;;;;;-1.07;77.55;101054.73;133494;1301;22464;-76
2023/02/27 05:32:17;;;;;;;;;;;;;;;-1.06;77.72;101054.35;133786;1301;22492;-78
2023/02/27 05:35:17;;;;;;;;;;;;;;;-1.07;77.66;101058.20;133840;1300;22481;-76
2023/02/27 05:38:24;;;;;;;;;;;;;;;-1.07;77.77;101052.69;133696;1301;22489;-78
2023/02/27 05:41:27;;;;;;;;;;;;;;;-1.09;77.83;101051.70;133706;1308;22511;-77
2023/02/27 05:44:29;;;;;;;;;;;;;;;-1.09;77.62;101058.46;133720;1300;22526;-79
2023/02/27 05:47:32;;;;;;;;;;;;;;;-1.11;77.65;101059.60;133693;1300;22567;-80
2023/02/27 05:50:34;;;;;;;;;;;;;;;-1.13;77.81;101063.51;133707;1300;22447;-79
2023/02/27 05:53:39;;;;;;;;;;;;;;;-1.15;77.74;101065.34;133708;1300;22474;-80
2023/02/27 05:56:43;;;;;;;;;;;;;;;-1.16;77.97;101068.70;133671;1300;23219;-79
2023/02/27 05:59:53;;;;;;;;;;;;;;;-1.18;78.01;101069.82;133703;1291;22470;-79
2023/02/27 06:02:53;;;;;;;;;;;;;;;-1.19;78.07;101071.58;133670;1300;22520;-79
2023/02/27 06:05:56;;;;;;;;;;;;;;;-1.19;77.99;101080.96;133431;1307;22510;-74
2023/02/27 06:08:56;;;;;;;;;;;;;;;-1.20;78.27;101081.54;133695;1300;22507;-79
2023/02/27 06:11:57;;;;;;;;;;;;;;;-1.20;78.35;101079.62;133650;1300;22494;-79
2023/02/27 06:14:58;;;;;;;;;;;;;;;-1.21;78.18;101082.61;133668;1301;22581;-78
2023/02/27 06:17:58;;;;;;;;;;;;;;;-1.20;78.34;101088.83;133630;1300;22511;-79
2023/02/27 06:20:59;;;;;;;;;;;;;;;-1.21;78.15;101088.35;133645;1300;22481;-79
2023/02/27 06:23:59;;;;;;;;;;;;;;;-1.19;78.68;101093.81;133695;1300;22488;-79
2023/02/27 06:27:00;;;;;;;;;;;;;;;-1.17;78.41;101097.02;133712;1308;22509;-79
2023/02/27 06:30:00;;;;;;;;;;;;;;;-1.14;78.54;101096.38;133705;1301;22524;-79
2023/02/27 06:33:01;;;;;;;;;;;;;;;-1.11;78.57;101099.52;133722;1300;22586;-79
2023/02/27 06:36:01;;;;;;;;;;;;;;;-1.08;78.50;101103.06;133713;1300;22504;-79
2023/02/27 06:39:03;;;;;;;;;;;;;;;-1.06;78.58;101099.15;133697;1300;22511;-79
2023/02/27 06:42:04;;;;;;;;;;;;;;;-1.04;78.40;101102.90;133734;1291;22555;-79
2023/02/27 06:45:05;;;;;;;;;;;;;;;-1.04;78.40;101104.63;133679;1300;23439;-79
2023/02/27 06:48:05;;;;;;;;;;;;;;;-1.03;78.42;101107.34;133706;1301;22573;-78
2023/02/27 06:51:06;;;;;;;;;;;;;;;-1.03;78.36;101108.05;133723;1301;22451;-78
2023/02/27 06:54:07;;;;;;;;;;;;;;;-1.02;78.57;101113.40;133681;1300;22502;-79
2023/02/27 06:57:07;;;;;;;;;;;;;;;-1.01;78.46;101108.31;133703;1305;22534;-79
2023/02/27 07:00:10;;;;;;;;;;;;;;;-1.01;78.72;101111.44;133755;1300;23294;-78
2023/02/27 07:03:11;;;;;;;;;;;;;;;-1.00;78.90;101112.61;133706;1300;22591;-78
2023/02/27 07:06:15;;;;;;;;;;;;;;;-0.99;78.64;101117.09;133715;1300;22515;-79
2023/02/27 07:09:15;;;;;;;;;;;;;;;-0.97;78.79;101119.92;133728;1301;22487;-78
2023/02/27 07:12:16;;;;;;;;;;;;;;;-0.94;78.93;101118.26;133766;1300;22496;-79
2023/02/27 07:15:16;;;;;;;;;;;;;;;-0.95;78.85;101131.27;133721;1301;22556;-78
2023/02/27 07:18:17;;;;;;;;;;;;;;;-0.99;78.51;101143.29;133666;1301;24421;-78
2023/02/27 07:21:17;;;;;;;;;;;;;;;-1.02;78.96;101150.19;133668;1301;22493;-78
2023/02/27 07:24:18;;;;;;;;;;;;;;;-1.02;78.87;101148.98;133478;1301;22489;-79
2023/02/27 07:27:18;;;;;;;;;;;;;;;-0.98;78.88;101145.86;133567;1301;22513;-78
2023/02/27 07:30:18;;;;;;;;;;;;;;;-0.93;78.95;101151.36;133735;1300;23345;-79
2023/02/27 07:33:19;;;;;;;;;;;;;;;-0.92;78.71;101148.54;133685;1300;22507;-78
2023/02/27 07:36:20;;;;;;;;;;;;;;;-0.90;78.85;101147.77;133721;1301;23231;-79
2023/02/27 07:39:20;;;;;;;;;;;;;;;-0.87;78.55;101149.57;133613;1302;22518;-78
2023/02/27 07:42:20;;;;;;;;;;;;;;;-0.84;78.77;101152.70;133708;1300;22495;-78
2023/02/27 07:45:22;;;;;;;;;;;;;;;-0.80;78.52;101152.55;133682;1301;23319;-79
2023/02/27 07:48:23;;;;;;;;;;;;;;;-0.77;78.90;101150.30;133706;1295;22501;-79
2023/02/27 07:51:23;;;;;;;;;;;;;;;-0.73;78.72;101151.89;133714;1301;22588;-79
2023/02/27 07:54:24;;;;;;;;;;;;;;;-0.69;78.61;101154.63;133723;1301;22475;-79
2023/02/27 07:57:24;;;;;;;;;;;;;;;-0.65;78.62;101155.55;133644;1300;122176;-78
2023/02/27 08:00:25;;;;;;;;;;;;;;;-0.60;78.60;101157.90;133680;1301;22617;-78
2023/02/27 08:03:25;;;;;;;;;;;;;;;-0.54;78.75;101158.10;133676;1302;22524;-79
2023/02/27 08:06:26;;;;;;;;;;;;;;;-0.50;78.62;101153.95;133702;1301;22510;-79
2023/02/27 08:09:26;;;;;;;;;;;;;;;-0.45;78.51;101152.65;133685;1308;22496;-78
2023/02/27 08:12:26;;;;;;;;;;;;;;;-0.38;78.53;101153.77;133693;1302;22549;-78
2023/02/27 08:15:27;;;;;;;;;;;;;;;-0.32;78.63;101153.30;133713;1301;22500;-79
2023/02/27 08:18:27;;;;;;;;;;;;;;;-0.29;78.58;101155.77;133695;1305;22558;-78
2023/02/27 08:21:28;;;;;;;;;;;;;;;-0.25;78.24;101155.20;133718;1293;22486;-78
2023/02/27 08:24:29;;;;;;;;;;;;;;;-0.19;78.45;101154.07;133677;1302;22500;-76
2023/02/27 08:27:29;;;;;;;;;;;;;;;-0.07;78.33;101151.77;133674;1300;22507;-76
2023/02/27 08:30:30;;;;;;;;;;;;;;;0.04;78.14;101155.25;133721;1300;23321;-80
2023/02/27 08:33:30;;;;;;;;;;;;;;;0.14;78.18;101158.39;133693;1301;24600;-80
2023/02/27 08:36:31;;;;;;;;;;;;;;;0.29;78.26;101162.40;133695;1300;22523;-80
2023/02/27 08:39:31;;;;;;;;;;;;;;;0.39;77.87;101162.54;133676;1300;23355;-85
2023/02/27 08:42:32;;;;;;;;;;;;;;;0.47;77.61;101163.05;133666;1305;23413;-81
2023/02/27 08:45:33;;;;;;;;;;;;;;;0.52;77.18;101164.17;133696;1301;22473;-81
2023/02/27 08:48:33;;;;;;;;;;;;;;;0.59;77.18;101167.70;133738;1300;22464;-81
2023/02/27 08:51:33;;;;;;;;;;;;;;;0.64;77.22;101169.65;133679;1301;22572;-81
2023/02/27 08:54:35;;;;;;;;;;;;;;;0.78;77.15;101170.55;133669;1300;22509;-81
2023/02/27 08:57:36;;;;;;;;;;;;;;;0.90;77.02;101174.45;133672;1300;23287;-82
2023/02/27 09:00:36;;;;;;;;;;;;;;;1.02;77.12;101176.81;133628;1301;22501;-81
2023/02/27 09:03:37;;;;;;;;;;;;;;;1.15;76.90;101177.36;133674;1300;23328;-80
2023/02/27 09:06:37;;;;;;;;;;;;;;;1.24;75.86;101184.54;133688;1301;22486;-81
2023/02/27 09:09:38;;;;;;;;;;;;;;;1.27;75.63;101194.66;133666;1300;22477;-81
2023/02/27 09:12:38;;;;;;;;;;;;;;;1.36;75.75;101196.63;133673;1300;22495;-81
2023/02/27 09:15:38;;;;;;;;;;;;;;;1.46;75.62;101203.42;133702;1300;23203;-79
2023/02/27 09:18:39;;;;;;;;;;;;;;;1.57;75.73;101206.52;133700;1300;22521;-81
2023/02/27 09:21:40;;;;;;;;;;;;;;;1.63;74.73;101208.09;133703;1301;23365;-81
2023/02/27 09:24:40;;;;;;;;;;;;;;;1.61;74.85;101209.97;133655;1300;23317;-79
2023/02/27 09:27:41;;;;;;;;;;;;;;;1.74;74.80;101215.91;133700;1300;23192;-80
2023/02/27 09:30:42;;;;;;;;;;;;;;;1.88;74.42;101217.01;133719;1300;25099;-80
2023/02/27 09:33:43;;;;;;;;;;;;;;;1.94;74.37;101220.70;133679;1300;22548;-79
2023/02/27 09:36:43;;;;;;;;;;;;;;;1.94;73.48;101219.13;133701;1300;22504;-80
2023/02/27 09:39:44;;;;;;;;;;;;;;;1.93;73.48;101219.04;133726;1301;22557;-80
2023/02/27 09:42:47;;;;;;;;;;;;;;;1.96;73.20;101214.98;133675;1301;23198;-80
2023/02/27 09:45:50;;;;;;;;;;;;;;;2.02;73.73;101221.15;133688;1300;22513;-80
2023/02/27 09:48:52;;;;;;;;;;;;;;;2.08;73.08;101224.52;133715;1301;22491;-82
2023/02/27 09:51:56;;;;;;;;;;;;;;;2.17;73.42;101222.75;133663;1301;22488;-77
2023/02/27 09:55:03;;;;;;;;;;;;;;;2.28;72.95;101223.22;133687;1300;23229;-80
2023/02/27 09:58:10;;;;;;;;;;;;;;;2.29;71.94;101227.15;133693;1300;22491;-79
2023/02/27 10:01:31;;;;;;;;;;;;;;;2.19;71.75;101229.60;133684;1300;23107;-80
2023/02/27 10:04:43;;;;;;;;;;;;;;;2.16;72.50;101232.93;133693;1301;22601;-80
2023/02/27 10:07:54;;;;;;;;;;;;;;;2.26;72.38;101233.41;133701;1301;22510;-79
2023/02/27 10:11:02;;;;;;;;;;;;;;;2.33;72.07;101236.02;133672;1300;22507;-79
2023/02/27 10:14:15;;;;;;;;;;;;;;;2.33;72.08;101238.10;133644;1300;23137;-80
2023/02/27 10:17:30;;;;;;;;;;;;;;;2.36;71.24;101241.43;133718;1300;22471;-80
2023/02/27 10:20:37;;;;;;;;;;;;;;;2.23;70.44;101237.25;133748;1300;22545;-80
2023/02/27 10:23:45;;;;;;;;;;;;;;;2.11;70.58;101237.59;133668;1300;22577;-80
2023/02/27 10:26:45;;;;;;;;;;;;;;;2.20;70.67;101237.23;133661;1300;22486;-80
2023/02/27 10:29:46;;;;;;;;;;;;;;;2.21;69.77;101236.81;133663;1300;22527;-80
2023/02/27 10:32:48;;;;;;;;;;;;;;;2.19;70.47;101231.23;133518;1300;22557;-80
2023/02/27 10:35:52;;;;;;;;;;;;;;;2.43;70.78;101231.23;133683;1300;23559;-79
2023/02/27 10:38:58;;;;;;;;;;;;;;;2.62;70.16;101234.89;133661;1300;22541;-80
2023/02/27 10:42:02;;;;;;;;;;;;;;;2.87;70.14;101228.17;133729;1300;22573;-80
2023/02/27 10:45:11;;;;;;;;;;;;;;;3.16;70.67;101228.58;133658;1300;22673;-80
2023/02/27 10:48:11;;;;;;;;;;;;;;;3.41;70.14;101224.23;133598;1301;22481;-80
2023/02/27 10:51:27;;;;;;;;;;;;;;;3.47;68.71;101223.17;133753;1300;22554;-80
2023/02/27 10:54:28;;;;;;;;;;;;;;;3.55;67.71;101221.14;133650;1300;23302;-80
2023/02/27 10:57:31;;;;;;;;;;;;;;;3.56;67.41;101219.96;133636;1300;23387;-80
2023/02/27 11:01:04;;;;;;;;;;;;;;;3.60;66.15;101220.27;133626;1300;22486;-79
2023/02/27 11:04:05;;;;;;;;;;;;;;;3.39;64.63;101218.39;133353;1300;22480;-79
2023/02/27 11:07:08;;;;;;;;;;;;;;;3.21;64.52;101218.65;133625;1300;23214;-79
2023/02/27 11:10:11;;;;;;;;;;;;;;;3.18;65.88;101218.15;133605;1300;22537;-79
2023/02/27 11:13:23;;;;;;;;;;;;;;;3.11;66.33;101214.71;133546;1300;22559;-79
2023/02/27 11:16:24;;;;;;;;;;;;;;;3.14;66.70;101212.73;133583;1300;23521;-79
2023/02/27 11:19:30;;;;;;;;;;;;;;;3.17;65.79;101211.87;133569;1300;22603;-79
2023/02/27 11:22:31;;;;;;;;;;;;;;;3.03;65.45;101208.19;133572;1300;23230;-79
2023/02/27 11:25:32;;;;;;;;;;;;;;;2.94;66.08;101209.58;133606;1300;22481;-79
2023/02/27 11:28:33;;;;;;;;;;;;;;;2.83;65.28;101210.03;133601;1301;23689;-79
2023/02/27 11:31:37;;;;;;;;;;;;;;;2.71;66.40;101207.95;133624;1300;22546;-79
2023/02/27 11:34:39;;;;;;;;;;;;;;;2.53;65.79;101209.86;133642;1300;22512;-79
2023/02/27 11:37:42;;;;;;;;;;;;;;;2.23;65.38;101207.23;133672;1301;22529;-79
2023/02/27 11:41:02;;;;;;;;;;;;;;;2.01;66.08;101210.55;133675;1297;22466;-79
2023/02/27 11:44:04;;;;;;;;;;;;;;;1.88;66.58;101206.22;133641;1300;23280;-78
2023/02/27 11:47:13;;;;;;;;;;;;;;;1.80;67.31;101213.44;133665;1300;22484;-78
2023/02/27 11:50:13;;;;;;;;;;;;;;;1.68;66.85;101218.83;133692;1300;23378;-78
2023/02/27 11:53:14;;;;;;;;;;;;;;;1.52;66.86;101218.98;133651;1300;22504;-79
2023/02/27 11:56:21;;;;;;;;;;;;;;;1.48;67.14;101218.69;133654;1300;22666;-79
2023/02/27 11:59:26;;;;;;;;;;;;;;;1.41;66.72;101212.58;133626;1300;22538;-79
2023/02/27 12:02:45;;;;;;;;;;;;;;;1.34;66.82;101211.06;133711;1300;22500;-79
2023/02/27 12:05:48;;;;;;;;;;;;;;;1.29;67.59;101214.23;133460;1303;22491;-79
2023/02/27 12:08:54;;;;;;;;;;;;;;;1.37;67.88;101219.26;133582;1300;22495;-79
2023/02/27 12:11:55;;;;;;;;;;;;;;;1.41;67.66;101213.80;133711;1301;23199;-79
2023/02/27 12:15:15;;;;;;;;;;;;;;;1.51;68.09;101213.97;133804;1292;23346;-80
2023/02/27 12:18:16;;;;;;;;;;;;;;;1.63;67.14;101214.77;133642;1307;22514;-79
2023/02/27 12:21:25;;;;;;;;;;;;;;;1.71;67.09;101213.10;133684;1300;22578;-80
2023/02/27 12:24:35;;;;;;;;;;;;;;;1.86;66.55;101212.96;133670;1300;23375;-79
2023/02/27 12:27:42;;;;;;;;;;;;;;;1.91;66.42;101211.60;133579;1304;22507;-78
2023/02/27 12:31:01;;;;;;;;;;;;;;;1.99;66.42;101211.55;133641;1300;22466;-79
2023/02/27 12:34:20;;;;;;;;;;;;;;;2.04;66.55;101210.70;133670;1300;22487;-80
2023/02/27 12:37:26;;;;;;;;;;;;;;;2.12;66.85;101212.59;133682;1300;22513;-80
2023/02/27 12:40:38;;;;;;;;;;;;;;;2.09;67.04;101212.55;133656;1301;23031;-80
2023/02/27 12:43:42;;;;;;;;;;;;;;;2.03;67.04;101216.05;133651;1300;22539;-80
2023/02/27 12:46:52;;;;;;;;;;;;;;;1.94;67.49;101212.67;133727;1300;22507;-80
2023/02/27 12:50:01;;;;;;;;;;;;;;;1.94;68.00;101216.72;133721;1300;22502;-80
2023/02/27 12:53:08;;;;;;;;;;;;;;;1.90;68.42;101222.33;133679;1300;22506;-79
2023/02/27 12:56:28;;;;;;;;;;;;;;;1.90;68.77;101229.32;133702;1300;23230;-80
2023/02/27 12:59:58;;;;;;;;;;;;;;;1.92;68.49;101225.02;133562;1301;22564;-80
2023/02/27 13:03:04;;;;;;;;;;;;;;;1.93;68.85;101222.53;133521;1300;23130;-80
2023/02/27 13:06:23;;;;;;;;;;;;;;;1.94;68.57;101229.77;133697;1301;22491;-80
2023/02/27 13:09:30;;;;;;;;;;;;;;;1.94;68.68;101230.33;133688;1300;22505;-80
2023/02/27 13:12:38;;;;;;;;;;;;;;;1.95;68.11;101233.95;133637;1300;23843;-79
2023/02/27 13:15:42;;;;;;;;;;;;;;;1.85;68.11;101234.64;133646;1291;22486;-80
2023/02/27 13:18:50;;;;;;;;;;;;;;;1.74;68.35;101232.44;133732;1289;22513;-80
2023/02/27 13:21:53;;;;;;;;;;;;;;;1.60;68.26;101233.39;133674;1301;23189;-79
2023/02/27 13:24:55;;;;;;;;;;;;;;;1.48;68.24;101234.17;133528;1303;22486;-79
2023/02/27 13:27:59;;;;;;;;;;;;;;;1.35;67.78;101243.27;133712;1300;22486;-78
2023/02/27 13:31:05;;;;;;;;;;;;;;;1.17;67.75;101240.34;133638;1300;22501;-79
2023/02/27 13:34:15;;;;;;;;;;;;;;;1.09;67.97;101242.80;133602;1300;23314;-78
2023/02/27 13:37:16;;;;;;;;;;;;;;;1.06;68.60;101245.60;133684;1300;22485;-79
2023/02/27 13:40:30;;;;;;;;;;;;;;;1.01;68.70;101250.41;133708;1300;23400;-80
2023/02/27 13:43:35;;;;;;;;;;;;;;;0.98;69.16;101252.11;133653;1300;23334;-80
2023/02/27 13:46:35;;;;;;;;;;;;;;;0.99;69.07;101255.02;133698;1300;22585;-79
2023/02/27 13:49:41;;;;;;;;;;;;;;;0.94;69.02;101257.05;133657;1300;22476;-80
2023/02/27 13:52:42;;;;;;;;;;;;;;;0.85;69.05;101260.41;133700;1300;22543;-79
2023/02/27 13:55:43;;;;;;;;;;;;;;;0.87;69.48;101261.00;133661;1300;22468;-79
2023/02/27 13:58:44;;;;;;;;;;;;;;;0.92;69.87;101262.68;133690;1300;23218;-79
2023/02/27 14:01:52;;;;;;;;;;;;;;;0.97;69.56;101260.70;133447;1309;23207;-80
2023/02/27 14:04:54;;;;;;;;;;;;;;;1.00;69.43;101262.14;133627;1300;23384;-80
2023/02/27 14:07:58;;;;;;;;;;;;;;;1.02;69.56;101266.21;133651;1300;22491;-79
2023/02/27 14:11:01;;;;;;;;;;;;;;;1.07;69.80;101261.76;133652;1288;22485;-79
2023/02/27 14:14:03;;;;;;;;;;;;;;;1.15;69.91;101265.54;133669;1300;22508;-78
2023/02/27 14:17:03;;;;;;;;;;;;;;;1.19;69.66;101267.09;133676;1300;22604;-80
2023/02/27 14:20:09;;;;;;;;;;;;;;;1.19;69.48;101266.36;133706;1300;22506;-80
2023/02/27 14:23:16;;;;;;;;;;;;;;;1.17;69.41;101266.45;133695;1300;23281;-80
2023/02/27 14:26:19;;;;;;;;;;;;;;;1.17;69.44;101270.15;133686;1300;22592;-80
2023/02/27 14:29:24;;;;;;;;;;;;;;;1.14;69.02;101273.45;133704;1300;22550;-80
2023/02/27 14:32:43;;;;;;;;;;;;;;;1.10;68.93;101272.75;133689;1300;23284;-80
2023/02/27 14:35:45;;;;;;;;;;;;;;;1.08;68.65;101275.64;133738;1300;22502;-75
2023/02/27 14:38:46;;;;;;;;;;;;;;;1.07;69.11;101273.45;133698;1300;22560;-79
2023/02/27 14:41:51;;;;;;;;;;;;;;;1.09;69.08;101273.50;133708;1300;22685;-79
2023/02/27 14:44:52;;;;;;;;;;;;;;;1.14;69.30;101276.23;133693;1300;22496;-79
2023/02/27 14:47:52;;;;;;;;;;;;;;;1.18;69.24;101272.67;133633;1302;23349;-79
2023/02/27 14:50:53;;;;;;;;;;;;;;;1.21;69.24;101277.58;133703;1301;22477;-79
2023/02/27 14:54:01;;;;;;;;;;;;;;;1.26;69.24;101282.94;133686;1300;22579;-79
2023/02/27 14:57:03;;;;;;;;;;;;;;;1.34;69.45;101286.70;133691;1301;22494;-79
2023/02/27 15:00:04;;;;;;;;;;;;;;;1.40;69.24;101293.87;133559;1303;22504;-78
2023/02/27 15:03:11;;;;;;;;;;;;;;;1.41;69.15;101298.38;133715;1301;22495;-80
2023/02/27 15:06:16;;;;;;;;;;;;;;;1.40;69.20;101305.56;133721;1300;22475;-80
2023/02/27 15:09:20;;;;;;;;;;;;;;;1.37;69.15;101308.48;133700;1300;23264;-80
2023/02/27 15:12:22;;;;;;;;;;;;;;;1.30;69.06;101309.56;133751;1300;23317;-80
2023/02/27 15:15:23;;;;;;;;;;;;;;;1.25;69.01;101316.10;133693;1300;22503;-80
2023/02/27 15:18:24;;;;;;;;;;;;;;;1.18;69.11;101318.38;133740;1300;22539;-80
2023/02/27 15:21:29;;;;;;;;;;;;;;;1.14;68.44;101319.77;133724;1300;23367;-80
2023/02/27 15:24:31;;;;;;;;;;;;;;;1.08;68.25;101323.73;133583;1303;22504;-80
2023/02/27 15:27:33;;;;;;;;;;;;;;;1.02;67.75;101329.23;133530;1301;22492;-80
2023/02/27 15:30:34;;;;;;;;;;;;;;;0.93;67.20;101332.85;133699;1301;23587;-80
2023/02/27 15:33:35;;;;;;;;;;;;;;;0.79;66.52;101338.41;133683;1308;22481;-80
2023/02/27 15:36:37;;;;;;;;;;;;;;;0.67;66.50;101341.77;133750;1300;22499;-80
2023/02/27 15:39:37;;;;;;;;;;;;;;;0.60;67.25;101346.46;133742;1300;22557;-80